sensor_id;sensor_type;location;lat;lon;timestamp;pressure;altitude;pressure_sealevel;temperature;humidity
28456;BME280;15682;56.742;38.866;2023-04-27T00:00:44;98660.0;;;10.8;96.3
28456;BME280;15682;56.742;38.866;2023-04-27T00:02:45;98660.0;;;10.8;96.3
28456;BME280;15682;56.742;38.866;2023-04-27T00:04:45;98660.0;;;10.8;96.3
28456;BME280;15682;56.742;38.866;2023-04-27T00:06:45;98660.0;;;10.8;96.3
28456;BME280;15682;56.742;38.866;2023-04-27T00:08:45;98660.0;;;10.8;96.3
28456;BME280;15682;56.742;38.866;2023-04-27T00:10:45;98670.0;;;10.9;96.3
28456;BME280;15682;56.742;38.866;2023-04-27T00:12:45;98670.0;;;10.9;96.3
28456;BME280;15682;56.742;38.866;2023-04-27T00:14:45;98670.0;;;10.9;96.3
28456;BME280;15682;56.742;38.866;2023-04-27T00:16:46;98670.0;;;10.9;96.3
28456;BME280;15682;56.742;38.866;2023-04-27T00:18:46;98680.0;;;10.9;96.3
28456;BME280;15682;56.742;38.866;2023-04-27T00:20:46;98680.0;;;10.8;96.3
28456;BME280;15682;56.742;38.866;2023-04-27T00:22:46;98680.0;;;10.8;96.3
28456;BME280;15682;56.742;38.866;2023-04-27T00:24:46;98680.0;;;10.9;96.3
28456;BME280;15682;56.742;38.866;2023-04-27T00:26:47;98680.0;;;10.8;96.3
28456;BME280;15682;56.742;38.866;2023-04-27T00:28:47;98690.0;;;10.8;96.3
28456;BME280;15682;56.742;38.866;2023-04-27T00:30:47;98690.0;;;10.8;96.3
28456;BME280;15682;56.742;38.866;2023-04-27T00:32:47;98690.0;;;10.8;96.3
28456;BME280;15682;56.742;38.866;2023-04-27T00:34:47;98690.0;;;10.8;96.3
28456;BME280;15682;56.742;38.866;2023-04-27T00:36:47;98690.0;;;10.8;96.3
28456;BME280;15682;56.742;38.866;2023-04-27T00:38:48;98690.0;;;10.8;96.3
28456;BME280;15682;56.742;38.866;2023-04-27T00:40:48;98690.0;;;10.8;96.3
28456;BME280;15682;56.742;38.866;2023-04-27T00:42:48;98690.0;;;10.8;96.3
28456;BME280;15682;56.742;38.866;2023-04-27T00:44:48;98700.0;;;10.6;96.3
28456;BME280;15682;56.742;38.866;2023-04-27T00:46:48;98700.0;;;10.6;96.3
28456;BME280;15682;56.742;38.866;2023-04-27T00:48:48;98700.0;;;10.7;96.3
28456;BME280;15682;56.742;38.866;2023-04-27T00:50:48;98700.0;;;10.7;96.3
28456;BME280;15682;56.742;38.866;2023-04-27T00:52:49;98700.0;;;10.7;96.3
28456;BME280;15682;56.742;38.866;2023-04-27T00:54:50;98700.0;;;10.7;96.3
28456;BME280;15682;56.742;38.866;2023-04-27T00:56:49;98710.0;;;10.7;96.3
28456;BME280;15682;56.742;38.866;2023-04-27T00:58:49;98710.0;;;10.6;96.3
28456;BME280;15682;56.742;38.866;2023-04-27T01:00:49;98710.0;;;10.6;96.3
28456;BME280;15682;56.742;38.866;2023-04-27T01:02:51;98720.0;;;10.6;96.3
28456;BME280;15682;56.742;38.866;2023-04-27T01:04:49;98720.0;;;10.6;96.3
28456;BME280;15682;56.742;38.866;2023-04-27T01:06:50;98720.0;;;10.6;96.3
28456;BME280;15682;56.742;38.866;2023-04-27T01:08:50;98720.0;;;10.7;96.3
28456;BME280;15682;56.742;38.866;2023-04-27T01:10:50;98720.0;;;10.7;96.3
28456;BME280;15682;56.742;38.866;2023-04-27T01:12:50;98720.0;;;10.7;96.3
28456;BME280;15682;56.742;38.866;2023-04-27T01:14:50;98720.0;;;10.7;96.3
28456;BME280;15682;56.742;38.866;2023-04-27T01:16:50;98720.0;;;10.7;96.3
28456;BME280;15682;56.742;38.866;2023-04-27T01:18:51;98730.0;;;10.7;96.3
28456;BME280;15682;56.742;38.866;2023-04-27T01:20:51;98730.0;;;10.7;96.3
28456;BME280;15682;56.742;38.866;2023-04-27T01:22:52;98730.0;;;10.7;96.3
28456;BME280;15682;56.742;38.866;2023-04-27T01:24:51;98730.0;;;10.7;96.3
28456;BME280;15682;56.742;38.866;2023-04-27T01:26:51;98740.0;;;10.5;96.3
28456;BME280;15682;56.742;38.866;2023-04-27T01:28:51;98740.0;;;10.6;96.3
28456;BME280;15682;56.742;38.866;2023-04-27T01:30:51;98740.0;;;10.6;96.3
28456;BME280;15682;56.742;38.866;2023-04-27T01:32:52;98740.0;;;10.6;96.3
28456;BME280;15682;56.742;38.866;2023-04-27T01:34:52;98740.0;;;10.6;96.3
28456;BME280;15682;56.742;38.866;2023-04-27T01:36:52;98740.0;;;10.6;96.3
28456;BME280;15682;56.742;38.866;2023-04-27T01:38:52;98740.0;;;10.7;96.3
28456;BME280;15682;56.742;38.866;2023-04-27T01:40:52;98740.0;;;10.7;96.3
28456;BME280;15682;56.742;38.866;2023-04-27T01:42:52;98740.0;;;10.7;96.3
28456;BME280;15682;56.742;38.866;2023-04-27T01:44:52;98740.0;;;10.7;96.3
28456;BME280;15682;56.742;38.866;2023-04-27T01:46:52;98740.0;;;10.7;96.3
28456;BME280;15682;56.742;38.866;2023-04-27T01:48:53;98750.0;;;10.6;96.3
28456;BME280;15682;56.742;38.866;2023-04-27T01:50:53;98750.0;;;10.5;96.3
28456;BME280;15682;56.742;38.866;2023-04-27T01:52:53;98750.0;;;10.5;96.3
28456;BME280;15682;56.742;38.866;2023-04-27T01:54:53;98750.0;;;10.5;96.3
28456;BME280;15682;56.742;38.866;2023-04-27T01:56:53;98750.0;;;10.5;96.3
28456;BME280;15682;56.742;38.866;2023-04-27T01:58:53;98750.0;;;10.4;96.3
28456;BME280;15682;56.742;38.866;2023-04-27T02:00:53;98750.0;;;10.3;96.3
28456;BME280;15682;56.742;38.866;2023-04-27T02:02:54;98750.0;;;10.2;96.3
28456;BME280;15682;56.742;38.866;2023-04-27T02:04:54;98750.0;;;10.2;96.3
28456;BME280;15682;56.742;38.866;2023-04-27T02:06:54;98760.0;;;10.0;96.3
28456;BME280;15682;56.742;38.866;2023-04-27T02:08:54;98760.0;;;10.1;96.3
28456;BME280;15682;56.742;38.866;2023-04-27T02:10:54;98760.0;;;10.1;96.3
28456;BME280;15682;56.742;38.866;2023-04-27T02:12:54;98770.0;;;10.1;96.3
28456;BME280;15682;56.742;38.866;2023-04-27T02:14:54;98770.0;;;10.1;96.3
28456;BME280;15682;56.742;38.866;2023-04-27T02:16:55;98770.0;;;10.1;96.3
28456;BME280;15682;56.742;38.866;2023-04-27T02:18:55;98770.0;;;9.9;96.3
28456;BME280;15682;56.742;38.866;2023-04-27T02:20:55;98770.0;;;10.0;96.3
28456;BME280;15682;56.742;38.866;2023-04-27T02:22:55;98780.0;;;10.2;96.3
28456;BME280;15682;56.742;38.866;2023-04-27T02:24:55;98780.0;;;10.2;96.3
28456;BME280;15682;56.742;38.866;2023-04-27T02:26:55;98780.0;;;10.2;96.3
28456;BME280;15682;56.742;38.866;2023-04-27T02:28:55;98780.0;;;10.1;96.3
28456;BME280;15682;56.742;38.866;2023-04-27T02:30:55;98780.0;;;10.1;96.3
28456;BME280;15682;56.742;38.866;2023-04-27T02:32:57;98780.0;;;10.1;96.3
28456;BME280;15682;56.742;38.866;2023-04-27T02:34:56;98780.0;;;10.0;96.3
28456;BME280;15682;56.742;38.866;2023-04-27T02:36:56;98780.0;;;9.9;96.3
28456;BME280;15682;56.742;38.866;2023-04-27T02:38:56;98780.0;;;9.9;96.3
28456;BME280;15682;56.742;38.866;2023-04-27T02:40:56;98780.0;;;9.9;96.3
28456;BME280;15682;56.742;38.866;2023-04-27T02:42:56;98780.0;;;9.9;96.3
28456;BME280;15682;56.742;38.866;2023-04-27T02:44:56;98790.0;;;9.9;96.3
28456;BME280;15682;56.742;38.866;2023-04-27T02:46:56;98790.0;;;9.8;96.3
28456;BME280;15682;56.742;38.866;2023-04-27T02:48:57;98800.0;;;9.9;96.3
28456;BME280;15682;56.742;38.866;2023-04-27T02:50:57;98810.0;;;9.9;96.3
28456;BME280;15682;56.742;38.866;2023-04-27T02:52:57;98810.0;;;10.0;96.3
28456;BME280;15682;56.742;38.866;2023-04-27T02:54:57;98810.0;;;10.0;96.3
28456;BME280;15682;56.742;38.866;2023-04-27T02:56:57;98810.0;;;10.0;96.3
28456;BME280;15682;56.742;38.866;2023-04-27T02:58:57;98810.0;;;10.1;96.3
28456;BME280;15682;56.742;38.866;2023-04-27T03:00:57;98810.0;;;10.1;96.3
28456;BME280;15682;56.742;38.866;2023-04-27T03:02:57;98810.0;;;10.2;96.3
28456;BME280;15682;56.742;38.866;2023-04-27T03:04:58;98810.0;;;10.1;96.3
28456;BME280;15682;56.742;38.866;2023-04-27T03:06:58;98820.0;;;10.1;96.3
28456;BME280;15682;56.742;38.866;2023-04-27T03:08:58;98820.0;;;10.1;96.3
28456;BME280;15682;56.742;38.866;2023-04-27T03:10:58;98820.0;;;10.1;96.3
28456;BME280;15682;56.742;38.866;2023-04-27T03:12:58;98820.0;;;10.2;96.3
28456;BME280;15682;56.742;38.866;2023-04-27T03:14:58;98820.0;;;10.2;96.3
28456;BME280;15682;56.742;38.866;2023-04-27T03:16:59;98830.0;;;10.2;96.3
28456;BME280;15682;56.742;38.866;2023-04-27T03:18:59;98830.0;;;10.3;96.3
28456;BME280;15682;56.742;38.866;2023-04-27T03:21:04;98830.0;;;10.2;96.3
28456;BME280;15682;56.742;38.866;2023-04-27T03:22:59;98840.0;;;10.2;96.3
28456;BME280;15682;56.742;38.866;2023-04-27T03:25:00;98840.0;;;10.4;96.3
28456;BME280;15682;56.742;38.866;2023-04-27T03:27:00;98840.0;;;10.4;96.3
28456;BME280;15682;56.742;38.866;2023-04-27T03:29:00;98840.0;;;10.4;96.3
28456;BME280;15682;56.742;38.866;2023-04-27T03:31:04;98840.0;;;10.4;96.3
28456;BME280;15682;56.742;38.866;2023-04-27T03:33:01;98850.0;;;10.4;96.3
28456;BME280;15682;56.742;38.866;2023-04-27T03:35:01;98850.0;;;10.5;96.3
28456;BME280;15682;56.742;38.866;2023-04-27T03:37:01;98850.0;;;10.5;96.3
28456;BME280;15682;56.742;38.866;2023-04-27T03:39:02;98860.0;;;10.5;96.3
28456;BME280;15682;56.742;38.866;2023-04-27T03:41:02;98860.0;;;10.5;96.3
28456;BME280;15682;56.742;38.866;2023-04-27T03:43:02;98860.0;;;10.5;96.3
28456;BME280;15682;56.742;38.866;2023-04-27T03:45:03;98870.0;;;10.5;96.3
28456;BME280;15682;56.742;38.866;2023-04-27T03:47:03;98870.0;;;10.5;96.3
28456;BME280;15682;56.742;38.866;2023-04-27T03:49:03;98870.0;;;10.6;96.3
28456;BME280;15682;56.742;38.866;2023-04-27T03:51:04;98870.0;;;10.6;96.3
28456;BME280;15682;56.742;38.866;2023-04-27T03:53:04;98880.0;;;10.8;96.3
28456;BME280;15682;56.742;38.866;2023-04-27T03:55:05;98880.0;;;10.8;96.3
28456;BME280;15682;56.742;38.866;2023-04-27T03:57:05;98880.0;;;10.9;96.3
28456;BME280;15682;56.742;38.866;2023-04-27T03:59:05;98880.0;;;10.9;96.3
28456;BME280;15682;56.742;38.866;2023-04-27T04:01:06;98880.0;;;10.8;96.3
28456;BME280;15682;56.742;38.866;2023-04-27T04:03:06;98880.0;;;10.8;96.3
28456;BME280;15682;56.742;38.866;2023-04-27T04:05:07;98880.0;;;10.9;96.3
28456;BME280;15682;56.742;38.866;2023-04-27T04:07:07;98880.0;;;10.9;96.3
28456;BME280;15682;56.742;38.866;2023-04-27T04:09:08;98880.0;;;10.8;96.3
28456;BME280;15682;56.742;38.866;2023-04-27T04:11:08;98880.0;;;10.9;96.3
28456;BME280;15682;56.742;38.866;2023-04-27T04:13:09;98880.0;;;10.9;96.3
28456;BME280;15682;56.742;38.866;2023-04-27T04:15:09;98880.0;;;10.9;96.3
28456;BME280;15682;56.742;38.866;2023-04-27T04:17:10;98880.0;;;10.9;96.3
28456;BME280;15682;56.742;38.866;2023-04-27T04:19:10;98880.0;;;10.9;96.3
28456;BME280;15682;56.742;38.866;2023-04-27T04:21:10;98880.0;;;10.9;96.3
28456;BME280;15682;56.742;38.866;2023-04-27T04:23:11;98890.0;;;10.9;96.3
28456;BME280;15682;56.742;38.866;2023-04-27T04:25:11;98890.0;;;10.9;96.3
28456;BME280;15682;56.742;38.866;2023-04-27T04:27:12;98890.0;;;10.9;96.3
28456;BME280;15682;56.742;38.866;2023-04-27T04:29:12;98890.0;;;10.9;96.3
28456;BME280;15682;56.742;38.866;2023-04-27T04:31:13;98890.0;;;10.9;96.3
28456;BME280;15682;56.742;38.866;2023-04-27T04:33:13;98890.0;;;10.9;96.3
28456;BME280;15682;56.742;38.866;2023-04-27T04:35:14;98890.0;;;10.9;96.3
28456;BME280;15682;56.742;38.866;2023-04-27T04:37:14;98900.0;;;10.9;96.3
28456;BME280;15682;56.742;38.866;2023-04-27T04:39:15;98910.0;;;10.9;96.3
28456;BME280;15682;56.742;38.866;2023-04-27T04:41:15;98910.0;;;10.9;96.3
28456;BME280;15682;56.742;38.866;2023-04-27T04:43:16;98910.0;;;10.9;96.3
28456;BME280;15682;56.742;38.866;2023-04-27T04:45:16;98910.0;;;10.9;96.3
28456;BME280;15682;56.742;38.866;2023-04-27T04:47:17;98910.0;;;10.9;96.3
28456;BME280;15682;56.742;38.866;2023-04-27T04:49:17;98910.0;;;10.9;96.3
28456;BME280;15682;56.742;38.866;2023-04-27T04:51:18;98910.0;;;10.9;96.3
28456;BME280;15682;56.742;38.866;2023-04-27T04:53:19;98910.0;;;10.9;96.3
28456;BME280;15682;56.742;38.866;2023-04-27T04:55:19;98910.0;;;10.9;96.3
28456;BME280;15682;56.742;38.866;2023-04-27T04:57:19;98910.0;;;10.9;96.3
28456;BME280;15682;56.742;38.866;2023-04-27T04:59:20;98910.0;;;10.9;96.3
28456;BME280;15682;56.742;38.866;2023-04-27T05:01:21;98910.0;;;10.9;96.3
28456;BME280;15682;56.742;38.866;2023-04-27T05:03:21;98920.0;;;10.9;96.3
28456;BME280;15682;56.742;38.866;2023-04-27T05:05:22;98920.0;;;10.9;96.3
28456;BME280;15682;56.742;38.866;2023-04-27T05:07:22;98930.0;;;10.9;96.3
28456;BME280;15682;56.742;38.866;2023-04-27T05:09:23;98930.0;;;10.9;96.3
28456;BME280;15682;56.742;38.866;2023-04-27T05:11:24;98930.0;;;10.9;96.3
28456;BME280;15682;56.742;38.866;2023-04-27T05:13:24;98930.0;;;10.9;96.3
28456;BME280;15682;56.742;38.866;2023-04-27T05:15:25;98930.0;;;10.9;96.3
28456;BME280;15682;56.742;38.866;2023-04-27T05:17:25;98930.0;;;10.9;96.3
28456;BME280;15682;56.742;38.866;2023-04-27T05:19:28;98930.0;;;10.9;96.3
28456;BME280;15682;56.742;38.866;2023-04-27T05:21:26;98930.0;;;10.9;96.3
28456;BME280;15682;56.742;38.866;2023-04-27T05:23:27;98930.0;;;10.9;96.3
28456;BME280;15682;56.742;38.866;2023-04-27T05:25:29;98930.0;;;10.9;96.3
28456;BME280;15682;56.742;38.866;2023-04-27T05:27:28;98930.0;;;10.9;96.3
28456;BME280;15682;56.742;38.866;2023-04-27T05:29:29;98930.0;;;10.9;96.3
28456;BME280;15682;56.742;38.866;2023-04-27T05:31:29;98930.0;;;10.9;96.3
28456;BME280;15682;56.742;38.866;2023-04-27T05:33:30;98930.0;;;10.9;96.3
28456;BME280;15682;56.742;38.866;2023-04-27T05:35:31;98930.0;;;10.9;96.3
28456;BME280;15682;56.742;38.866;2023-04-27T05:37:33;98930.0;;;10.9;96.3
28456;BME280;15682;56.742;38.866;2023-04-27T05:39:32;98930.0;;;10.9;96.3
28456;BME280;15682;56.742;38.866;2023-04-27T05:41:33;98930.0;;;10.9;96.3
28456;BME280;15682;56.742;38.866;2023-04-27T05:43:33;98930.0;;;10.9;96.3
28456;BME280;15682;56.742;38.866;2023-04-27T05:45:38;98930.0;;;10.9;96.3
28456;BME280;15682;56.742;38.866;2023-04-27T05:47:34;98930.0;;;10.9;96.3
28456;BME280;15682;56.742;38.866;2023-04-27T05:49:35;98930.0;;;10.9;96.3
28456;BME280;15682;56.742;38.866;2023-04-27T05:51:36;98930.0;;;10.9;96.3
28456;BME280;15682;56.742;38.866;2023-04-27T05:53:36;98930.0;;;10.9;96.3
28456;BME280;15682;56.742;38.866;2023-04-27T05:55:37;98930.0;;;10.9;96.3
28456;BME280;15682;56.742;38.866;2023-04-27T05:57:38;98930.0;;;10.9;96.3
28456;BME280;15682;56.742;38.866;2023-04-27T05:59:38;98930.0;;;10.9;96.3
28456;BME280;15682;56.742;38.866;2023-04-27T06:01:39;98930.0;;;10.9;96.3
28456;BME280;15682;56.742;38.866;2023-04-27T06:03:39;98930.0;;;10.9;96.3
28456;BME280;15682;56.742;38.866;2023-04-27T06:05:40;98930.0;;;10.9;96.3
28456;BME280;15682;56.742;38.866;2023-04-27T06:07:41;98930.0;;;10.9;96.3
28456;BME280;15682;56.742;38.866;2023-04-27T06:09:41;98930.0;;;10.9;96.3
28456;BME280;15682;56.742;38.866;2023-04-27T06:11:42;98930.0;;;10.9;96.3
28456;BME280;15682;56.742;38.866;2023-04-27T06:13:42;98930.0;;;10.9;96.3
28456;BME280;15682;56.742;38.866;2023-04-27T06:15:43;98930.0;;;10.9;96.3
28456;BME280;15682;56.742;38.866;2023-04-27T06:17:44;98930.0;;;10.9;96.3
28456;BME280;15682;56.742;38.866;2023-04-27T06:19:44;98930.0;;;10.9;96.3
28456;BME280;15682;56.742;38.866;2023-04-27T06:21:45;98930.0;;;10.9;96.3
28456;BME280;15682;56.742;38.866;2023-04-27T06:23:45;98930.0;;;10.9;96.3
28456;BME280;15682;56.742;38.866;2023-04-27T06:25:46;98930.0;;;10.9;96.3
28456;BME280;15682;56.742;38.866;2023-04-27T06:27:46;98930.0;;;10.9;96.3
28456;BME280;15682;56.742;38.866;2023-04-27T06:29:47;98930.0;;;10.9;96.3
28456;BME280;15682;56.742;38.866;2023-04-27T06:31:48;98930.0;;;10.9;96.3
28456;BME280;15682;56.742;38.866;2023-04-27T06:33:48;98930.0;;;10.9;96.3
28456;BME280;15682;56.742;38.866;2023-04-27T06:35:49;98940.0;;;10.9;96.3
28456;BME280;15682;56.742;38.866;2023-04-27T06:37:49;98950.0;;;10.9;96.3
28456;BME280;15682;56.742;38.866;2023-04-27T06:39:50;98950.0;;;10.9;96.3
28456;BME280;15682;56.742;38.866;2023-04-27T06:41:50;98950.0;;;10.9;96.3
28456;BME280;15682;56.742;38.866;2023-04-27T06:43:51;98950.0;;;10.9;96.3
28456;BME280;15682;56.742;38.866;2023-04-27T06:45:51;98950.0;;;10.9;96.3
28456;BME280;15682;56.742;38.866;2023-04-27T06:47:52;98960.0;;;10.9;96.3
28456;BME280;15682;56.742;38.866;2023-04-27T06:49:52;98960.0;;;10.9;96.3
28456;BME280;15682;56.742;38.866;2023-04-27T06:51:54;98960.0;;;10.9;96.3
28456;BME280;15682;56.742;38.866;2023-04-27T06:53:54;98960.0;;;10.9;96.3
28456;BME280;15682;56.742;38.866;2023-04-27T06:55:54;98960.0;;;10.9;96.3
28456;BME280;15682;56.742;38.866;2023-04-27T06:57:55;98960.0;;;10.9;96.3
28456;BME280;15682;56.742;38.866;2023-04-27T06:59:55;98960.0;;;10.9;96.3
28456;BME280;15682;56.742;38.866;2023-04-27T07:01:56;98960.0;;;10.9;96.3
28456;BME280;15682;56.742;38.866;2023-04-27T07:03:57;98970.0;;;10.9;96.3
28456;BME280;15682;56.742;38.866;2023-04-27T07:05:57;98970.0;;;10.9;96.3
28456;BME280;15682;56.742;38.866;2023-04-27T07:07:58;98970.0;;;10.9;96.3
28456;BME280;15682;56.742;38.866;2023-04-27T07:09:59;98970.0;;;10.9;96.3
28456;BME280;15682;56.742;38.866;2023-04-27T07:11:59;98980.0;;;10.9;96.3
28456;BME280;15682;56.742;38.866;2023-04-27T07:14:00;98980.0;;;10.9;96.3
28456;BME280;15682;56.742;38.866;2023-04-27T07:16:01;98980.0;;;10.9;96.3
28456;BME280;15682;56.742;38.866;2023-04-27T07:18:01;98980.0;;;10.9;96.3
28456;BME280;15682;56.742;38.866;2023-04-27T07:20:03;98980.0;;;10.9;96.3
28456;BME280;15682;56.742;38.866;2023-04-27T07:22:02;98980.0;;;10.9;96.3
28456;BME280;15682;56.742;38.866;2023-04-27T07:24:03;98980.0;;;10.9;96.3
28456;BME280;15682;56.742;38.866;2023-04-27T07:26:03;98980.0;;;10.9;96.3
28456;BME280;15682;56.742;38.866;2023-04-27T07:28:04;98980.0;;;10.9;96.3
28456;BME280;15682;56.742;38.866;2023-04-27T07:30:05;98980.0;;;10.9;96.3
28456;BME280;15682;56.742;38.866;2023-04-27T07:32:05;98980.0;;;10.9;96.3
28456;BME280;15682;56.742;38.866;2023-04-27T07:34:05;98980.0;;;10.9;96.3
28456;BME280;15682;56.742;38.866;2023-04-27T07:36:06;98980.0;;;10.9;96.3
28456;BME280;15682;56.742;38.866;2023-04-27T07:38:06;98980.0;;;10.9;96.3
28456;BME280;15682;56.742;38.866;2023-04-27T07:40:08;98980.0;;;10.9;96.3
28456;BME280;15682;56.742;38.866;2023-04-27T07:42:07;98980.0;;;10.9;96.3
28456;BME280;15682;56.742;38.866;2023-04-27T07:44:07;98980.0;;;10.9;96.3
28456;BME280;15682;56.742;38.866;2023-04-27T07:46:08;98980.0;;;10.9;96.3
28456;BME280;15682;56.742;38.866;2023-04-27T07:48:08;98980.0;;;10.9;96.3
28456;BME280;15682;56.742;38.866;2023-04-27T07:50:09;98980.0;;;10.9;96.3
28456;BME280;15682;56.742;38.866;2023-04-27T07:52:09;98980.0;;;10.9;96.3
28456;BME280;15682;56.742;38.866;2023-04-27T07:54:09;98980.0;;;10.9;96.3
28456;BME280;15682;56.742;38.866;2023-04-27T07:56:10;98990.0;;;10.9;96.3
28456;BME280;15682;56.742;38.866;2023-04-27T07:58:10;98990.0;;;10.9;96.3
28456;BME280;15682;56.742;38.866;2023-04-27T08:00:11;98990.0;;;10.9;96.3
28456;BME280;15682;56.742;38.866;2023-04-27T08:02:11;98990.0;;;10.9;96.3
28456;BME280;15682;56.742;38.866;2023-04-27T08:04:11;98990.0;;;10.9;96.3
28456;BME280;15682;56.742;38.866;2023-04-27T08:06:12;98990.0;;;10.9;96.3
28456;BME280;15682;56.742;38.866;2023-04-27T08:08:12;98990.0;;;10.9;96.3
28456;BME280;15682;56.742;38.866;2023-04-27T08:10:13;98990.0;;;10.9;96.3
28456;BME280;15682;56.742;38.866;2023-04-27T08:12:13;98990.0;;;10.9;96.3
28456;BME280;15682;56.742;38.866;2023-04-27T08:14:13;98990.0;;;10.9;96.3
28456;BME280;15682;56.742;38.866;2023-04-27T08:16:13;98990.0;;;10.9;96.3
28456;BME280;15682;56.742;38.866;2023-04-27T08:18:14;98990.0;;;10.9;96.3
28456;BME280;15682;56.742;38.866;2023-04-27T08:20:14;98990.0;;;10.9;96.3
28456;BME280;15682;56.742;38.866;2023-04-27T08:22:15;98990.0;;;10.9;96.3
28456;BME280;15682;56.742;38.866;2023-04-27T08:24:15;98990.0;;;10.9;96.3
28456;BME280;15682;56.742;38.866;2023-04-27T08:26:15;98990.0;;;10.9;96.3
28456;BME280;15682;56.742;38.866;2023-04-27T08:28:16;98990.0;;;10.9;96.3
28456;BME280;15682;56.742;38.866;2023-04-27T08:30:16;98990.0;;;10.9;96.3
28456;BME280;15682;56.742;38.866;2023-04-27T08:32:16;98990.0;;;10.9;96.3
28456;BME280;15682;56.742;38.866;2023-04-27T08:34:17;98990.0;;;10.9;96.3
28456;BME280;15682;56.742;38.866;2023-04-27T08:36:17;98990.0;;;10.9;96.3
28456;BME280;15682;56.742;38.866;2023-04-27T08:38:17;98990.0;;;10.9;96.3
28456;BME280;15682;56.742;38.866;2023-04-27T08:40:18;98990.0;;;10.9;96.3
28456;BME280;15682;56.742;38.866;2023-04-27T08:42:18;98990.0;;;10.9;96.3
28456;BME280;15682;56.742;38.866;2023-04-27T08:44:19;98990.0;;;10.9;96.3
28456;BME280;15682;56.742;38.866;2023-04-27T08:46:19;98990.0;;;10.9;96.3
28456;BME280;15682;56.742;38.866;2023-04-27T08:48:19;98990.0;;;10.9;96.3
28456;BME280;15682;56.742;38.866;2023-04-27T08:50:20;98990.0;;;10.9;96.3
28456;BME280;15682;56.742;38.866;2023-04-27T08:52:20;98990.0;;;10.9;96.3
28456;BME280;15682;56.742;38.866;2023-04-27T08:54:21;98990.0;;;10.9;96.3
28456;BME280;15682;56.742;38.866;2023-04-27T08:56:22;98990.0;;;10.9;96.3
28456;BME280;15682;56.742;38.866;2023-04-27T08:58:21;98990.0;;;10.9;96.3
28456;BME280;15682;56.742;38.866;2023-04-27T09:00:24;98990.0;;;10.9;96.3
28456;BME280;15682;56.742;38.866;2023-04-27T09:02:22;98990.0;;;10.9;96.3
28456;BME280;15682;56.742;38.866;2023-04-27T09:04:23;98990.0;;;10.9;96.3
28456;BME280;15682;56.742;38.866;2023-04-27T09:06:33;98990.0;;;10.9;96.3
28456;BME280;15682;56.742;38.866;2023-04-27T09:08:23;98990.0;;;10.9;96.3
28456;BME280;15682;56.742;38.866;2023-04-27T09:10:24;98990.0;;;10.9;96.3
28456;BME280;15682;56.742;38.866;2023-04-27T09:12:24;98990.0;;;10.9;96.3
28456;BME280;15682;56.742;38.866;2023-04-27T09:14:25;98990.0;;;10.9;96.3
28456;BME280;15682;56.742;38.866;2023-04-27T09:16:26;98990.0;;;10.9;96.3
28456;BME280;15682;56.742;38.866;2023-04-27T09:18:25;98990.0;;;10.9;96.3
28456;BME280;15682;56.742;38.866;2023-04-27T09:20:26;98990.0;;;10.9;96.3
28456;BME280;15682;56.742;38.866;2023-04-27T09:22:26;98990.0;;;10.9;96.3
28456;BME280;15682;56.742;38.866;2023-04-27T09:24:26;98990.0;;;10.9;96.3
28456;BME280;15682;56.742;38.866;2023-04-27T09:26:27;98990.0;;;10.9;96.3
28456;BME280;15682;56.742;38.866;2023-04-27T09:28:29;98990.0;;;10.9;96.3
28456;BME280;15682;56.742;38.866;2023-04-27T09:30:28;98990.0;;;10.9;96.3
28456;BME280;15682;56.742;38.866;2023-04-27T09:32:28;98990.0;;;10.9;96.3
28456;BME280;15682;56.742;38.866;2023-04-27T09:34:37;98990.0;;;10.9;96.3
28456;BME280;15682;56.742;38.866;2023-04-27T09:36:29;98990.0;;;10.9;96.3
28456;BME280;15682;56.742;38.866;2023-04-27T09:38:29;98990.0;;;10.9;96.3
28456;BME280;15682;56.742;38.866;2023-04-27T09:40:29;98990.0;;;10.9;96.3
28456;BME280;15682;56.742;38.866;2023-04-27T09:42:30;98990.0;;;10.9;96.3
28456;BME280;15682;56.742;38.866;2023-04-27T09:44:30;98990.0;;;10.9;96.3
28456;BME280;15682;56.742;38.866;2023-04-27T09:46:32;98990.0;;;10.9;96.3
28456;BME280;15682;56.742;38.866;2023-04-27T09:48:31;98990.0;;;10.9;96.3
28456;BME280;15682;56.742;38.866;2023-04-27T09:50:34;98990.0;;;10.9;96.3
28456;BME280;15682;56.742;38.866;2023-04-27T09:52:32;98990.0;;;10.9;96.3
28456;BME280;15682;56.742;38.866;2023-04-27T09:54:33;98990.0;;;10.9;96.3
28456;BME280;15682;56.742;38.866;2023-04-27T09:56:40;98980.0;;;10.9;96.3
28456;BME280;15682;56.742;38.866;2023-04-27T09:58:47;98980.0;;;10.9;96.3
28456;BME280;15682;56.742;38.866;2023-04-27T10:00:45;98980.0;;;10.9;96.3
28456;BME280;15682;56.742;38.866;2023-04-27T10:02:54;98980.0;;;10.9;96.3
28456;BME280;15682;56.742;38.866;2023-04-27T10:04:44;98990.0;;;10.9;96.3
28456;BME280;15682;56.742;38.866;2023-04-27T10:06:52;98990.0;;;10.9;96.3
28456;BME280;15682;56.742;38.866;2023-04-27T10:08:35;98990.0;;;10.9;96.3
28456;BME280;15682;56.742;38.866;2023-04-27T10:10:47;98990.0;;;10.9;96.3
28456;BME280;15682;56.742;38.866;2023-04-27T10:12:36;98990.0;;;10.9;96.3
28456;BME280;15682;56.742;38.866;2023-04-27T10:14:47;98990.0;;;10.9;96.3
28456;BME280;15682;56.742;38.866;2023-04-27T10:16:43;98990.0;;;10.9;96.3
28456;BME280;15682;56.742;38.866;2023-04-27T10:18:37;98990.0;;;10.9;96.3
28456;BME280;15682;56.742;38.866;2023-04-27T10:20:37;98990.0;;;10.9;96.3
28456;BME280;15682;56.742;38.866;2023-04-27T10:22:38;98990.0;;;10.9;96.3
28456;BME280;15682;56.742;38.866;2023-04-27T10:24:40;98990.0;;;10.9;96.3
28456;BME280;15682;56.742;38.866;2023-04-27T10:26:45;98990.0;;;10.9;96.3
28456;BME280;15682;56.742;38.866;2023-04-27T10:28:39;98990.0;;;10.9;96.3
28456;BME280;15682;56.742;38.866;2023-04-27T10:30:44;98990.0;;;10.9;96.3
28456;BME280;15682;56.742;38.866;2023-04-27T10:32:49;98990.0;;;10.9;96.3
28456;BME280;15682;56.742;38.866;2023-04-27T10:34:42;98990.0;;;10.9;96.3
28456;BME280;15682;56.742;38.866;2023-04-27T10:36:40;98990.0;;;10.9;96.3
28456;BME280;15682;56.742;38.866;2023-04-27T10:38:41;98990.0;;;10.9;96.3
28456;BME280;15682;56.742;38.866;2023-04-27T10:40:43;98990.0;;;10.9;96.3
28456;BME280;15682;56.742;38.866;2023-04-27T10:42:42;98990.0;;;10.9;96.3
28456;BME280;15682;56.742;38.866;2023-04-27T10:44:53;98990.0;;;10.9;96.3
28456;BME280;15682;56.742;38.866;2023-04-27T10:46:51;98980.0;;;10.9;96.3
28456;BME280;15682;56.742;38.866;2023-04-27T10:48:43;98980.0;;;10.9;96.3
28456;BME280;15682;56.742;38.866;2023-04-27T10:50:43;98980.0;;;10.9;96.3
28456;BME280;15682;56.742;38.866;2023-04-27T10:52:44;98980.0;;;10.9;96.3
28456;BME280;15682;56.742;38.866;2023-04-27T10:54:45;98980.0;;;10.9;96.3